createdAt,value
2022-10-02T00:01:47.641Z,16.08
2022-10-02T00:04:20.456Z,16.06
2022-10-02T00:06:50.607Z,16.05
2022-10-02T00:09:30.040Z,16.04
2022-10-02T00:12:00.920Z,16.04
2022-10-02T00:14:36.447Z,16.02
2022-10-02T00:17:05.296Z,15.99
2022-10-02T00:19:33.672Z,15.95
2022-10-02T00:22:12.720Z,15.94
2022-10-02T00:24:49.271Z,15.95
2022-10-02T00:27:34.144Z,15.89
2022-10-02T00:30:05.427Z,15.89
2022-10-02T00:32:42.326Z,15.91
2022-10-02T00:35:38.270Z,15.97
2022-10-02T00:38:16.897Z,15.96
2022-10-02T00:41:05.712Z,15.92
2022-10-02T00:43:42.925Z,15.94
2022-10-02T00:46:29.080Z,15.90
2022-10-02T00:49:10.640Z,15.89
2022-10-02T00:51:49.127Z,15.88
2022-10-02T00:54:40.007Z,15.88
2022-10-02T00:57:18.487Z,15.87
2022-10-02T00:59:58.290Z,15.87
2022-10-02T01:02:54.218Z,15.85
2022-10-02T01:05:22.668Z,15.88
2022-10-02T01:07:54.438Z,15.86
2022-10-02T01:10:25.455Z,15.85
2022-10-02T01:12:56.928Z,15.87
2022-10-02T01:15:31.604Z,15.89
2022-10-02T01:18:02.124Z,15.91
2022-10-02T01:20:35.990Z,15.94
2022-10-02T01:23:16.656Z,15.92
2022-10-02T01:25:46.345Z,15.95
2022-10-02T01:28:14.784Z,15.95
2022-10-02T01:30:46.650Z,15.98
2022-10-02T01:33:16.697Z,15.98
2022-10-02T01:35:45.363Z,15.96
2022-10-02T01:38:16.960Z,15.97
2022-10-02T01:40:46.615Z,15.95
2022-10-02T01:43:18.019Z,15.94
2022-10-02T01:45:54.912Z,15.96
2022-10-02T01:48:36.283Z,15.98
2022-10-02T01:51:26.720Z,16.01
2022-10-02T01:54:04.173Z,16.02
2022-10-02T01:56:43.113Z,15.99
2022-10-02T01:59:21.219Z,15.99
2022-10-02T02:01:59.836Z,15.96
2022-10-02T02:04:34.992Z,15.95
2022-10-02T02:07:12.635Z,15.88
2022-10-02T02:09:46.763Z,15.88
2022-10-02T02:12:22.446Z,15.84
2022-10-02T02:14:55.577Z,15.84
2022-10-02T02:17:27.799Z,15.84
2022-10-02T02:20:03.064Z,15.85
2022-10-02T02:22:35.215Z,15.82
2022-10-02T02:25:09.145Z,15.78
2022-10-02T02:27:42.320Z,15.81
2022-10-02T02:30:14.277Z,15.79
2022-10-02T02:32:46.418Z,15.82
2022-10-02T02:35:18.877Z,15.84
2022-10-02T02:37:50.385Z,15.85
2022-10-02T02:40:24.097Z,15.84
2022-10-02T02:42:59.507Z,15.84
2022-10-02T02:45:32.323Z,15.77
2022-10-02T02:48:09.296Z,15.83
2022-10-02T02:50:43.392Z,15.79
2022-10-02T02:53:16.092Z,15.81
2022-10-02T02:55:49.116Z,15.84
2022-10-02T02:58:22.025Z,15.83
2022-10-02T03:00:50.467Z,15.88
2022-10-02T03:03:18.563Z,15.88
2022-10-02T03:05:49.798Z,15.87
2022-10-02T03:08:23.946Z,15.88
2022-10-02T03:11:05.330Z,15.88
2022-10-02T03:13:51.169Z,15.88
2022-10-02T03:16:39.543Z,15.88
2022-10-02T03:19:24.661Z,15.85
2022-10-02T03:22:03.381Z,15.86
2022-10-02T03:24:36.492Z,15.82
2022-10-02T03:27:09.575Z,15.82
2022-10-02T03:29:44.475Z,15.82
2022-10-02T03:32:15.339Z,15.89
2022-10-02T03:34:44.541Z,15.94
2022-10-02T03:37:12.628Z,16.01
2022-10-02T03:39:44.581Z,16.04
2022-10-02T03:42:15.277Z,16.07
2022-10-02T03:44:44.972Z,16.10
2022-10-02T03:47:13.326Z,16.12
2022-10-02T03:49:41.738Z,16.18
2022-10-02T03:52:16.386Z,16.21
2022-10-02T03:54:45.911Z,16.23
2022-10-02T03:57:19.106Z,16.25
2022-10-02T03:59:55.542Z,16.27
2022-10-02T04:02:32.063Z,16.28
2022-10-02T04:05:07.774Z,16.24
2022-10-02T04:07:40.858Z,16.19
2022-10-02T04:10:26.897Z,16.24
2022-10-02T04:13:01.870Z,16.23
2022-10-02T04:15:37.712Z,16.20
2022-10-02T04:18:11.456Z,16.18
2022-10-02T04:20:46.758Z,16.16
2022-10-02T04:23:22.996Z,16.17
2022-10-02T04:25:55.355Z,16.14
2022-10-02T04:28:29.731Z,16.12
2022-10-02T04:31:01.416Z,16.12
2022-10-02T04:33:36.354Z,16.06
2022-10-02T04:36:18.699Z,16.04
2022-10-02T04:39:29.244Z,16.03
2022-10-02T04:42:20.848Z,16.08
2022-10-02T04:45:05.306Z,16.05
2022-10-02T04:47:57.644Z,16.02
2022-10-02T04:50:46.175Z,16.01
2022-10-02T04:53:33.319Z,15.99
2022-10-02T04:56:22.450Z,15.96
2022-10-02T04:59:06.786Z,15.96
2022-10-02T05:01:50.601Z,15.95
2022-10-02T05:04:39.272Z,15.92
2022-10-02T05:07:25.491Z,15.92
2022-10-02T05:10:01.806Z,15.92
2022-10-02T05:12:43.257Z,15.89
2022-10-02T05:15:38.712Z,15.91
2022-10-02T05:18:35.251Z,15.89
2022-10-02T05:21:18.572Z,15.84
2022-10-02T05:24:02.903Z,15.89
2022-10-02T05:26:48.500Z,15.93
2022-10-02T05:29:29.785Z,15.97
2022-10-02T05:32:17.911Z,15.96
2022-10-02T05:35:03.771Z,16.00
2022-10-02T05:37:45.741Z,16.04
2022-10-02T05:40:22.893Z,16.03
2022-10-02T05:42:59.457Z,16.09
2022-10-02T05:45:32.246Z,16.08
2022-10-02T05:48:07.553Z,16.10
2022-10-02T05:50:37.785Z,16.09
2022-10-02T05:53:17.212Z,16.14
2022-10-02T05:55:50.199Z,16.22
2022-10-02T05:58:25.806Z,16.20
2022-10-02T06:01:01.619Z,16.22
2022-10-02T06:03:35.114Z,16.40
2022-10-02T06:06:11.697Z,16.41
2022-10-02T06:08:48.333Z,16.58
2022-10-02T06:11:21.280Z,16.59
2022-10-02T06:13:53.852Z,16.70
2022-10-02T06:16:28.404Z,16.80
2022-10-02T06:19:01.032Z,16.91
2022-10-02T06:21:34.044Z,17.10
2022-10-02T06:24:10.828Z,17.16
2022-10-02T06:26:45.001Z,17.34
2022-10-02T06:29:23.651Z,17.46
2022-10-02T06:32:03.203Z,17.60
2022-10-02T06:34:31.480Z,17.72
2022-10-02T06:37:22.828Z,17.98
2022-10-02T06:40:21.208Z,18.14
2022-10-02T06:42:58.512Z,18.10
2022-10-02T06:45:36.824Z,18.35
2022-10-02T06:48:11.358Z,18.25
2022-10-02T06:50:53.633Z,18.39
2022-10-02T06:53:40.480Z,18.19
2022-10-02T06:56:27.647Z,18.31
2022-10-02T06:59:06.626Z,18.17
2022-10-02T07:01:48.741Z,18.08
2022-10-02T07:04:42.278Z,18.31
2022-10-02T07:07:23.937Z,18.50
2022-10-02T07:10:06.593Z,18.65
2022-10-02T07:12:57.834Z,19.05
2022-10-02T07:15:56.511Z,19.14
2022-10-02T07:18:35.964Z,19.19
2022-10-02T07:21:11.312Z,19.10
2022-10-02T07:23:47.357Z,19.00
2022-10-02T07:26:46.957Z,19.01
2022-10-02T07:29:33.245Z,18.93
2022-10-02T07:32:31.617Z,18.94
2022-10-02T07:35:09.512Z,18.86
2022-10-02T07:37:47.769Z,19.03
2022-10-02T07:40:35.795Z,19.08
2022-10-02T07:43:18.051Z,19.21
2022-10-02T07:45:58.288Z,19.25
2022-10-02T07:48:45.723Z,19.17
2022-10-02T07:51:45.950Z,19.36
2022-10-02T07:54:30.480Z,19.43
2022-10-02T07:57:06.339Z,19.37
2022-10-02T07:59:43.362Z,19.44
2022-10-02T08:02:29.529Z,19.64
2022-10-02T08:05:01.751Z,19.60
2022-10-02T08:07:31.838Z,19.77
2022-10-02T08:10:07.309Z,19.93
2022-10-02T08:12:41.047Z,20.03
2022-10-02T08:15:16.119Z,20.19
2022-10-02T08:17:50.882Z,20.22
2022-10-02T08:20:31.062Z,20.27
2022-10-02T08:23:06.820Z,20.31
2022-10-02T08:25:44.009Z,20.39
2022-10-02T08:28:20.503Z,20.33
2022-10-02T08:30:49.169Z,20.56
2022-10-02T08:33:20.890Z,20.52
2022-10-02T08:36:07.877Z,20.57
2022-10-02T08:38:42.433Z,20.47
2022-10-02T08:41:41.070Z,20.44
2022-10-02T08:44:39.517Z,20.28
2022-10-02T08:47:40.588Z,20.26
2022-10-02T08:50:48.143Z,20.37
2022-10-02T08:53:52.118Z,20.49
2022-10-02T08:56:39.959Z,20.50
2022-10-02T08:59:54.007Z,20.60
2022-10-02T09:03:06.693Z,20.48
2022-10-02T09:06:05.058Z,20.41
2022-10-02T09:09:12.021Z,20.38
2022-10-02T09:12:22.034Z,20.38
2022-10-02T09:14:56.782Z,20.42
2022-10-02T09:17:49.810Z,20.71
2022-10-02T09:20:44.244Z,20.96
2022-10-02T09:24:02.422Z,21.26
2022-10-02T09:26:45.933Z,21.26
2022-10-02T09:30:03.142Z,21.63
2022-10-02T09:33:16.141Z,21.85
2022-10-02T09:36:25.203Z,21.89
2022-10-02T09:39:33.788Z,22.04
2022-10-02T09:42:48.373Z,22.23
2022-10-02T09:45:51.472Z,22.30
2022-10-02T09:49:00.655Z,22.24
2022-10-02T09:51:43.377Z,22.20
2022-10-02T09:54:48.925Z,22.30
2022-10-02T09:57:54.532Z,22.07
2022-10-02T10:00:58.862Z,22.06
2022-10-02T10:03:49.833Z,22.19
2022-10-02T10:06:40.081Z,22.23
2022-10-02T10:09:42.121Z,22.16
2022-10-02T10:12:46.471Z,22.07
2022-10-02T10:15:50.774Z,22.54
2022-10-02T10:18:48.177Z,22.74
2022-10-02T10:21:51.227Z,22.70
2022-10-02T10:24:51.206Z,22.96
2022-10-02T10:27:50.451Z,23.30
2022-10-02T10:31:04.533Z,23.65
2022-10-02T10:34:18.763Z,23.64
2022-10-02T10:37:17.107Z,23.56
2022-10-02T10:40:21.003Z,23.57
2022-10-02T10:43:25.005Z,23.72
2022-10-02T10:46:09.518Z,23.71
2022-10-02T10:48:59.841Z,23.16
2022-10-02T10:51:32.541Z,23.29
2022-10-02T10:54:27.772Z,23.30
2022-10-02T10:57:01.012Z,23.37
2022-10-02T11:00:15.999Z,23.30
2022-10-02T11:03:07.055Z,23.15
2022-10-02T11:06:03.805Z,23.20
2022-10-02T11:08:54.173Z,23.13
2022-10-02T11:11:27.789Z,23.09
2022-10-02T11:14:15.194Z,23.44
2022-10-02T11:17:10.695Z,23.34
2022-10-02T11:19:53.121Z,23.26
2022-10-02T11:22:53.588Z,23.33
2022-10-02T11:25:39.317Z,23.53
2022-10-02T11:28:34.371Z,23.85
2022-10-02T11:31:20.014Z,24.02
2022-10-02T11:34:13.489Z,23.83
2022-10-02T11:36:52.852Z,23.93
2022-10-02T11:39:41.235Z,24.11
2022-10-02T11:42:25.780Z,23.73
2022-10-02T11:45:14.261Z,24.14
2022-10-02T11:48:14.215Z,24.12
2022-10-02T11:51:14.758Z,23.93
2022-10-02T11:53:59.976Z,23.92
2022-10-02T11:56:53.337Z,24.13
2022-10-02T11:59:40.443Z,24.13
2022-10-02T12:02:16.787Z,24.08
2022-10-02T12:05:05.952Z,23.96
2022-10-02T12:07:44.174Z,23.73
2022-10-02T12:10:28.744Z,23.78
2022-10-02T12:13:15.834Z,23.93
2022-10-02T12:15:53.921Z,23.83
2022-10-02T12:18:36.994Z,24.01
2022-10-02T12:21:37.244Z,24.21
2022-10-02T12:24:35.028Z,24.27
2022-10-02T12:27:14.095Z,24.61
2022-10-02T12:30:00.455Z,24.48
2022-10-02T12:32:44.439Z,24.79
2022-10-02T12:35:27.640Z,24.63
2022-10-02T12:38:07.965Z,24.47
2022-10-02T12:40:48.035Z,24.21
2022-10-02T12:43:40.116Z,24.45
2022-10-02T12:46:25.206Z,24.24
2022-10-02T12:49:16.029Z,24.58
2022-10-02T12:52:00.043Z,24.41
2022-10-02T12:54:59.679Z,24.50
2022-10-02T12:57:55.792Z,24.44
2022-10-02T13:00:26.592Z,24.43
2022-10-02T13:03:19.944Z,24.52
2022-10-02T13:06:07.886Z,24.07
2022-10-02T13:08:49.967Z,24.08
2022-10-02T13:11:32.887Z,23.86
2022-10-02T13:14:18.502Z,23.75
2022-10-02T13:17:10.161Z,23.48
2022-10-02T13:19:53.999Z,23.00
2022-10-02T13:22:31.394Z,23.01
2022-10-02T13:25:19.654Z,23.21
2022-10-02T13:27:59.770Z,23.19
2022-10-02T13:30:36.876Z,23.13
2022-10-02T13:33:18.899Z,23.06
2022-10-02T13:35:57.442Z,23.03
2022-10-02T13:38:39.174Z,23.23
2022-10-02T13:41:18.284Z,23.40
2022-10-02T13:43:58.805Z,23.26
2022-10-02T13:46:39.555Z,23.45
2022-10-02T13:49:21.019Z,23.42
2022-10-02T13:51:57.610Z,23.52
2022-10-02T13:54:43.913Z,23.12
2022-10-02T13:57:26.384Z,23.57
2022-10-02T14:00:08.696Z,23.21
2022-10-02T14:03:03.028Z,23.33
2022-10-02T14:05:41.938Z,23.17
2022-10-02T14:08:52.148Z,23.17
2022-10-02T14:11:31.372Z,23.12
2022-10-02T14:14:17.253Z,23.00
2022-10-02T14:16:59.186Z,22.95
2022-10-02T14:19:52.726Z,23.22
2022-10-02T14:22:38.524Z,23.15
2022-10-02T14:25:30.839Z,23.25
2022-10-02T14:28:38.175Z,22.85
2022-10-02T14:31:22.478Z,23.01
2022-10-02T14:34:10.752Z,23.18
2022-10-02T14:36:50.091Z,23.22
2022-10-02T14:39:31.792Z,23.28
2022-10-02T14:42:15.679Z,23.13
2022-10-02T14:45:07.012Z,22.99
2022-10-02T14:48:03.722Z,22.71
2022-10-02T14:50:52.305Z,22.87
2022-10-02T14:53:41.496Z,22.57
2022-10-02T14:56:36.563Z,22.39
2022-10-02T14:59:22.251Z,22.21
2022-10-02T15:02:01.130Z,21.32
2022-10-02T15:04:44.061Z,20.93
2022-10-02T15:07:15.007Z,20.59
2022-10-02T15:10:02.436Z,20.37
2022-10-02T15:12:45.339Z,20.28
2022-10-02T15:15:19.447Z,20.20
2022-10-02T15:17:56.536Z,20.27
2022-10-02T15:20:37.683Z,20.26
2022-10-02T15:23:10.332Z,20.33
2022-10-02T15:26:09.480Z,20.11
2022-10-02T15:28:50.188Z,20.20
2022-10-02T15:31:26.935Z,20.13
2022-10-02T15:34:06.263Z,20.12
2022-10-02T15:36:53.282Z,20.23
2022-10-02T15:39:47.565Z,20.25
2022-10-02T15:42:26.455Z,20.03
2022-10-02T15:45:11.777Z,20.16
2022-10-02T15:48:13.293Z,20.10
2022-10-02T15:50:53.220Z,20.22
2022-10-02T15:53:33.919Z,19.90
2022-10-02T15:56:22.230Z,19.98
2022-10-02T15:59:09.564Z,19.97
2022-10-02T16:01:50.539Z,20.00
2022-10-02T16:04:26.896Z,19.89
2022-10-02T16:07:26.108Z,19.92
2022-10-02T16:10:12.397Z,19.99
2022-10-02T16:12:59.354Z,19.88
2022-10-02T16:15:33.676Z,19.83
2022-10-02T16:18:15.994Z,19.72
2022-10-02T16:21:12.626Z,19.78
2022-10-02T16:24:17.193Z,19.86
2022-10-02T16:27:09.742Z,19.91
2022-10-02T16:29:47.674Z,19.98
2022-10-02T16:32:26.568Z,19.75
2022-10-02T16:35:17.718Z,19.75
2022-10-02T16:37:47.469Z,19.96
2022-10-02T16:40:26.823Z,19.93
2022-10-02T16:43:23.352Z,19.85
2022-10-02T16:46:03.776Z,19.69
2022-10-02T16:48:42.634Z,19.59
2022-10-02T16:51:25.565Z,19.57
2022-10-02T16:57:53.920Z,19.47
2022-10-02T17:00:29.519Z,19.40
2022-10-02T17:03:03.087Z,19.33
2022-10-02T17:05:41.795Z,19.23
2022-10-02T17:08:17.938Z,19.17
2022-10-02T17:11:09.859Z,19.02
2022-10-02T17:13:49.841Z,19.07
2022-10-02T17:16:24.574Z,18.89
2022-10-02T17:18:56.782Z,18.86
2022-10-02T17:21:30.525Z,18.88
2022-10-02T17:24:21.250Z,18.82
2022-10-02T17:26:54.684Z,18.85
2022-10-02T17:29:28.940Z,18.71
2022-10-02T17:31:58.921Z,18.65
2022-10-02T17:34:30.936Z,18.74
2022-10-02T17:37:07.082Z,18.73
2022-10-02T17:39:57.570Z,18.62
2022-10-02T17:42:43.686Z,18.55
2022-10-02T17:45:36.620Z,18.49
2022-10-02T17:48:26.622Z,18.51
2022-10-02T17:51:51.366Z,18.48
2022-10-02T17:55:00.705Z,18.48
2022-10-02T17:57:53.394Z,18.49
2022-10-02T18:00:24.758Z,18.43
2022-10-02T18:03:26.457Z,18.43
2022-10-02T18:06:18.113Z,18.48
2022-10-02T18:09:12.198Z,18.45
2022-10-02T18:12:12.383Z,18.43
2022-10-02T18:15:03.430Z,18.45
2022-10-02T18:17:44.973Z,18.37
2022-10-02T18:20:24.508Z,18.44
2022-10-02T18:23:22.677Z,18.44
2022-10-02T18:26:03.139Z,18.47
2022-10-02T18:28:56.888Z,18.42
2022-10-02T18:31:55.227Z,18.47
2022-10-02T18:34:49.140Z,18.36
2022-10-02T18:37:39.314Z,18.37
2022-10-02T18:40:22.210Z,18.39
2022-10-02T18:43:04.935Z,18.38
2022-10-02T18:45:47.644Z,18.41
2022-10-02T18:48:36.294Z,18.48
2022-10-02T18:51:19.017Z,18.34
2022-10-02T18:54:03.142Z,18.37
2022-10-02T18:56:51.434Z,18.37
2022-10-02T18:59:32.156Z,18.32
2022-10-02T19:02:14.260Z,18.32
2022-10-02T19:04:55.327Z,18.34
2022-10-02T19:07:29.448Z,18.18
2022-10-02T19:10:21.388Z,18.21
2022-10-02T19:12:53.212Z,18.11
2022-10-02T19:15:27.155Z,18.19
2022-10-02T19:18:03.492Z,18.19
2022-10-02T19:20:51.316Z,18.00
2022-10-02T19:23:25.794Z,18.08
2022-10-02T19:25:56.885Z,18.03
2022-10-02T19:28:29.261Z,17.85
2022-10-02T19:31:03.578Z,17.99
2022-10-02T19:33:43.426Z,18.00
2022-10-02T19:36:19.484Z,17.77
2022-10-02T19:38:54.969Z,17.97
2022-10-02T19:41:24.275Z,17.84
2022-10-02T19:43:57.335Z,17.83
2022-10-02T19:46:33.871Z,17.79
2022-10-02T19:49:03.892Z,17.87
2022-10-02T19:51:43.463Z,17.76
2022-10-02T19:54:17.171Z,17.86
2022-10-02T19:56:46.482Z,17.84
2022-10-02T19:59:18.966Z,17.83
2022-10-02T20:01:51.698Z,17.81
2022-10-02T20:04:23.190Z,17.62
2022-10-02T20:06:54.573Z,17.63
2022-10-02T20:09:30.808Z,17.77
2022-10-02T20:12:03.089Z,17.81
2022-10-02T20:14:38.410Z,17.69
2022-10-02T20:17:12.655Z,17.79
2022-10-02T20:19:45.664Z,17.66
2022-10-02T20:22:24.013Z,17.78
2022-10-02T20:24:57.852Z,17.83
2022-10-02T20:27:36.965Z,17.86
2022-10-02T20:30:11.920Z,17.61
2022-10-02T20:32:46.231Z,17.76
2022-10-02T20:35:19.922Z,17.72
2022-10-02T20:37:53.029Z,17.66
2022-10-02T20:40:24.327Z,17.76
2022-10-02T20:42:59.041Z,17.49
2022-10-02T20:45:34.226Z,17.71
2022-10-02T20:48:39.553Z,17.55
2022-10-02T20:51:34.073Z,17.66
2022-10-02T20:54:23.502Z,17.64
2022-10-02T20:57:20.772Z,17.66
2022-10-02T21:00:15.579Z,17.58
2022-10-02T21:03:17.462Z,17.59
2022-10-02T21:06:04.603Z,17.65
2022-10-02T21:09:06.671Z,17.53
2022-10-02T21:11:46.120Z,17.55
2022-10-02T21:14:43.448Z,17.64
2022-10-02T21:17:41.896Z,17.64
2022-10-02T21:20:50.966Z,17.68
2022-10-02T21:23:44.670Z,17.47
2022-10-02T21:26:43.239Z,17.61
2022-10-02T21:29:41.608Z,17.73
2022-10-02T21:32:34.286Z,17.66
2022-10-02T21:35:35.799Z,17.57
2022-10-02T21:38:42.846Z,17.42
2022-10-02T21:41:40.929Z,17.57
2022-10-02T21:44:50.033Z,17.42
2022-10-02T21:47:39.321Z,17.61
2022-10-02T21:50:40.721Z,17.48
2022-10-02T21:53:49.935Z,17.45
2022-10-02T21:56:52.676Z,17.49
2022-10-02T21:59:43.046Z,17.44
2022-10-02T22:02:32.658Z,17.26
2022-10-02T22:05:41.711Z,17.27
2022-10-02T22:08:21.327Z,17.32
2022-10-02T22:10:57.987Z,17.37
2022-10-02T22:13:33.158Z,17.32
2022-10-02T22:16:18.258Z,17.27
2022-10-02T22:18:53.627Z,17.25
2022-10-02T22:21:44.446Z,17.18
2022-10-02T22:24:31.360Z,17.19
2022-10-02T22:27:15.919Z,17.05
2022-10-02T22:29:48.398Z,17.04
2022-10-02T22:33:03.106Z,17.00
2022-10-02T22:35:45.564Z,17.00
2022-10-02T22:38:18.836Z,17.01
2022-10-02T22:40:52.225Z,17.09
2022-10-02T22:43:31.546Z,16.88
2022-10-02T22:46:05.528Z,16.95
2022-10-02T22:48:40.853Z,17.07
2022-10-02T22:51:17.876Z,17.09
2022-10-02T22:53:51.981Z,17.19
2022-10-02T22:56:28.667Z,16.91
2022-10-02T22:59:07.329Z,17.03
2022-10-02T23:01:45.130Z,17.07
2022-10-02T23:04:27.275Z,17.12
2022-10-02T23:07:02.202Z,17.18
2022-10-02T23:09:40.424Z,17.17
2022-10-02T23:12:13.428Z,17.26
2022-10-02T23:14:50.718Z,17.22
2022-10-02T23:17:25.876Z,17.05
2022-10-02T23:20:00.454Z,17.12
2022-10-02T23:22:34.613Z,17.00
2022-10-02T23:25:16.592Z,16.74
2022-10-02T23:27:55.200Z,16.83
2022-10-02T23:30:24.583Z,16.62
2022-10-02T23:32:58.721Z,16.74
2022-10-02T23:35:32.199Z,16.74
2022-10-02T23:38:04.889Z,16.75
2022-10-02T23:41:10.450Z,16.73
2022-10-02T23:43:47.913Z,16.69
2022-10-02T23:46:22.269Z,16.67
2022-10-02T23:48:52.079Z,16.59
2022-10-02T23:51:34.172Z,16.65
2022-10-02T23:54:36.209Z,16.69
2022-10-02T23:57:17.563Z,16.67
